Nakusp, Canada
Current Conditions -  °F | °C
As of 5:00 PM on Friday 28 Nov 2014 (Local Time) from CYCG Reporting Station
Rain Showers Rain Showers  
Wind Chill: 26°   Ceiling: 2400
Heat Index: 36°   Visibility: 10mi
Dew Point: 34°   Wind: 16mph
Humidity: 93%   Direction: 10°N
Pressure: 29.2"   Gusts: 28mph
Location:  50.24°N, 117.8°W
Report Text: CYCG 290100Z 01014G24KT 10SM -SHRA FEW010 BKN024 OVC030 02/01 A2920 RMK SC2SC4SC2 LAST OBS/NEXT 291400UTC SLP899
Loading
Personal Weather Stations






























Interactive Weather Map New forecast layout! Learn more

10-Day Weather Forecast

Advertisements
Track Severe Weather on mobile